• Join FlightAware (Why Join?)
  • Login
  • US Flag 
10:50AM EDT


 

Airport Tracker/Info


-or-


 

Live Flight TrackerFlight Track Log ✈ GJS3707 ✈ 18-Jul-2013 ✈ KORD - KBOI

Flight Track Log - Related Links

Times and Time Zones

All times are in EDT time to prevent confusion due to time zone crossing. See the GJS3707 flight status page for this flight to view local times or setup timezone preferences in your user account.

Time Position Orientation Groundspeed Altitude Reporting Facility
EDT Latitude Longitude Course Direction KTS MPH feet Rate Location/Type
11:01AM 42.0000 -87.9500 261° West 175 201 1,600  Level Chicago TRACON
11:02AM 42.0333 -88.0000 312° West 225 259 2,900 1,680 Climbing Chicago TRACON
11:03AM 42.0500 -88.1000 283° West 265 305 5,000 2,160 Climbing Chicago TRACON
11:05AM 41.8936 -88.6637 261° West  Level FlightAware Approximate
11:05AM 42.0256 -88.2258 255° West 280 322 8,200  Level Chicago Center
11:06AM 41.8757 -88.8174 261° West  Level FlightAware Approximate
11:06AM 42.0078 -88.3236 256° West 280 322 10,400  Level Chicago Center
11:07AM 41.8577 -88.9745 261° West  Level FlightAware Approximate
11:07AM 42.0206 -88.4292 279° West 287 330 12,400  Level Chicago Center
11:08AM 42.0383 -88.5564 281° West 292 336 14,500 1,320 Climbing Chicago Center
11:09AM 42.0517 -88.6842 278° West 350 403 15,200 1,080 Climbing Chicago Center
11:10AM 42.0403 -88.8161 263° West 364 419 16,800 1,440 Climbing Chicago Center
11:11AM 42.0400 -88.9461 270° West 365 420 18,200 1,320 Climbing Chicago Center
11:12AM 42.0569 -89.0811 280° West 371 427 19,600 1,260 Climbing Chicago Center
11:13AM 42.0625 -89.2508 273° West 383 441 20,900 1,080 Climbing Chicago Center
11:14AM 42.0653 -89.3978 272° West 396 456 21,900 960 Climbing Chicago Center
11:15AM 42.0686 -89.5608 272° West 408 470 23,000 960 Climbing Chicago Center
11:16AM 42.0728 -89.7033 272° West 417 480 23,900 960 Climbing Chicago Center
11:17AM 42.0758 -89.8858 271° West 417 480 25,100 1,020 Climbing Chicago Center
11:18AM 42.0786 -90.0386 271° West 422 486 26,100 900 Climbing Chicago Center
11:19AM 42.0811 -90.1958 271° West 425 489 27,000 720 Climbing Chicago Center
11:20AM 42.0836 -90.3558 271° West 430 495 27,700 720 Climbing Chicago Center
11:21AM 42.0872 -90.5194 272° West 438 504 28,500 720 Climbing Chicago Center
11:22AM 42.0889 -90.7181 271° West 444 511 29,300 720 Climbing Chicago Center
11:23AM 42.0903 -90.8858 271° West 449 517 30,000 300 Climbing Chicago Center
11:24AM 42.0917 -91.0575 271° West 460 529 30,000  Level Chicago Center
11:25AM 42.0928 -91.2261 271° West 457 526 30,000  Level Chicago Center
11:26AM 42.0944 -91.3961 271° West 455 524 30,000  Level Chicago Center
11:27AM 42.0953 -91.5661 270° West 455 524 30,000  Level Chicago Center
11:28AM 42.0956 -91.7722 270° West 460 529 30,000  Level Chicago Center
11:30AM 42.0964 -92.1139 270° West 460 529 30,000  Level Chicago Center
11:31AM 42.0956 -92.2842 270° West 461 531 30,000  Level Chicago Center
11:32AM 42.0942 -92.4539 269° West 457 526 30,000  Level Chicago Center
11:33AM 42.0944 -92.6611 270° West 461 531 30,000  Level Chicago Center
11:35AM 42.0922 -92.8336 269° West 463 533 30,000  Level Chicago Center
11:36AM 42.0925 -93.0072 270° West 467 537 30,000  Level Chicago Center
11:37AM 42.0914 -93.1831 270° West 471 542 30,000  Level Chicago Center
11:38AM 42.1253 -93.3506 285° West 468 539 30,000  Level Chicago Center
11:39AM 42.1519 -93.5200 282° West 480 552 30,000  Level Chicago Center
11:40AM 42.1597 -93.7311 273° West 471 542 30,000  Level Chicago Center
11:41AM 42.1642 -93.9072 272° West 475 547 30,000  Level Chicago Center
11:42AM 42.1689 -94.0828 272° West 473 544 30,000  Level Chicago Center
11:43AM 42.1731 -94.2572 272° West 472 543 30,000  Level Chicago Center
11:44AM 42.1808 -94.5092 272° West 471 542 30,000  Level Minneapolis Center
11:45AM 42.1858 -94.7214 272° West 475 547 30,000  Level Minneapolis Center
11:46AM 42.1894 -94.8975 272° West 474 545 30,000  Level Minneapolis Center
11:47AM 42.1919 -95.0717 271° West 467 537 30,000  Level Minneapolis Center
11:48AM 42.1950 -95.2494 271° West 474 545 30,000  Level Minneapolis Center
11:49AM 42.1975 -95.4264 271° West 475 547 30,000  Level Minneapolis Center
11:50AM 42.2008 -95.6394 271° West 476 548 30,000  Level Minneapolis Center
11:51AM 42.2028 -95.8156 271° West 474 545 30,000  Level Minneapolis Center
11:53AM 42.2044 -95.9908 271° West 471 542 30,000  Level Minneapolis Center
11:54AM 42.2058 -96.1631 271° West 466 536 30,000  Level Minneapolis Center
11:55AM 42.2075 -96.3361 271° West 464 534 30,000  Level Minneapolis Center
11:56AM 42.2081 -96.5108 270° West 466 536 30,000  Level Minneapolis Center
11:57AM 42.2083 -96.7189 270° West 467 537 30,000  Level Minneapolis Center
11:58AM 42.2094 -96.8894 271° West 461 531 30,000  Level Minneapolis Center
11:59AM 42.2097 -97.0611 270° West 459 528 30,000  Level Minneapolis Center
12:00PM 42.2089 -97.2344 270° West 462 532 30,000  Level Minneapolis Center
12:01PM 42.2094 -97.4069 270° West 462 532 30,000  Level Minneapolis Center
12:02PM 42.2086 -97.6158 270° West 465 535 30,000  Level Minneapolis Center
12:03PM 42.2061 -97.8922 269° West 461 531 30,000  Level Denver Center
12:05PM 42.2047 -98.0839 270° West 460 529 30,000  Level Denver Center
12:06PM 42.2028 -98.2486 269° West 460 529 30,000  Level Denver Center
12:07PM 42.2014 -98.4169 269° West 466 536 30,000  Level Denver Center
12:08PM 42.1989 -98.6081 269° West 461 531 30,000  Level Denver Center
12:09PM 42.1967 -98.7756 269° West 464 534 30,000  Level Denver Center
12:10PM 42.1947 -98.9700 269° West 466 536 30,000  Level Denver Center
12:11PM 42.1911 -99.1342 268° West 461 531 30,000  Level Denver Center
12:13PM 42.1842 -99.4939 269° West 463 533 30,000  Level Denver Center
12:14PM 42.1794 -99.6867 268° West 463 533 30,000  Level Denver Center
12:15PM 42.1750 -99.8519 268° West 461 531 30,000  Level Denver Center
12:16PM 42.1717 -100.0461 269° West 464 534 30,000  Level Denver Center
12:17PM 42.1667 -100.2117 268° West 464 534 30,000  Level Denver Center
12:18PM 42.1619 -100.4053 268° West 465 535 30,000  Level Denver Center
12:19PM 42.1569 -100.5694 268° West 460 529 30,000  Level Denver Center
12:20PM 42.1506 -100.7611 267° West 460 529 30,000  Level Denver Center
12:21PM 42.1461 -100.9264 268° West 462 532 30,000  Level Denver Center
12:22PM 42.1400 -101.1164 268° West 458 527 30,000  Level Denver Center
12:23PM 42.1339 -101.2803 267° West 458 527 30,000  Level Denver Center
12:24PM 42.1264 -101.4731 267° West 461 531 30,000  Level Denver Center
12:25PM 42.1203 -101.6386 267° West 463 533 30,000  Level Denver Center
12:26PM 42.1122 -101.8308 267° West 462 532 30,000  Level Denver Center
12:27PM 42.1053 -101.9956 267° West 463 533 30,000  Level Denver Center
12:28PM 42.0983 -102.1889 267° West 464 534 30,000  Level Denver Center
12:29PM 42.0894 -102.3439 266° West 463 533 30,000  Level Denver Center
12:30PM 42.0811 -102.5361 267° West 461 531 30,000  Level Denver Center
12:31PM 42.0731 -102.7000 266° West 458 527 30,000  Level Denver Center
12:32PM 42.0636 -102.8925 266° West 460 529 30,000  Level Denver Center
12:33PM 42.0553 -103.0547 266° West 455 524 30,000  Level Denver Center
12:35PM 42.0447 -103.2461 266° West 459 528 30,000  Level Denver Center
12:36PM 42.0361 -103.4069 266° West 454 522 30,000  Level Denver Center
12:37PM 42.0247 -103.5972 265° West 455 524 30,000  Level Denver Center
12:38PM 42.0161 -103.7594 266° West 455 524 30,000  Level Denver Center
12:39PM 42.0056 -103.9486 266° West 454 522 30,000  Level Denver Center
12:40PM 41.9950 -104.1114 265° West 453 521 30,000  Level Denver Center
12:41PM 41.9856 -104.2733 266° West 454 522 30,000  Level Denver Center
12:42PM 41.9725 -104.4614 265° West 453 521 30,000  Level Denver Center
12:43PM 41.9636 -104.6217 266° West 449 517 30,000  Level Denver Center
12:44PM 41.9506 -104.8108 265° West 452 520 30,000  Level Denver Center
12:45PM 41.9403 -104.9708 265° West 450 518 30,000  Level Denver Center
12:46PM 41.9269 -105.1569 265° West 448 516 30,000  Level Denver Center
12:47PM 41.9164 -105.3172 265° West 449 517 30,000  Level Denver Center
12:48PM 41.9014 -105.5006 264° West 440 506 30,000  Level Denver Center
12:49PM 41.8892 -105.6589 264° West 444 511 30,000  Level Denver Center
12:50PM 41.8778 -105.8178 265° West 447 514 30,000  Level Denver Center
12:51PM 41.8650 -106.0011 265° West 442 509 30,000  Level Denver Center
12:52PM 41.8531 -106.1583 264° West 444 511 30,000  Level Denver Center
12:53PM 41.8372 -106.3411 263° West 441 507 30,000  Level Denver Center
12:54PM 41.8225 -106.5172 264° West 441 507 30,000  Level Denver Center
12:55PM 41.8106 -106.6744 264° West 441 507 30,000  Level Denver Center
12:56PM 41.7969 -106.8306 263° West 440 506 30,000  Level Denver Center
12:57PM 41.7822 -107.0119 264° West 438 504 30,000  Level Denver Center
12:58PM 41.7683 -107.1681 263° West 442 509 30,000  Level Denver Center
12:59PM 41.7519 -107.3483 263° West 438 504 30,000  Level Denver Center
01:00PM 41.7453 -107.4269 264° West 436 502 30,000  Level Salt Lake Center
01:01PM 41.7292 -107.6097 263° West 442 509 30,000  Level Salt Lake Center
01:01PM 41.7222 -107.6861 263° West 442 509 30,000  Level Denver Center
01:02PM 41.7069 -107.8419 263° West 443 510 30,000  Level Denver Center
01:03PM 41.6972 -107.9472 263° West 444 511 30,000  Level Salt Lake Center
01:04PM 41.6814 -108.1028 262° West 442 509 30,000  Level Salt Lake Center
01:05PM 41.6750 -108.1789 264° West 442 509 30,000  Level Denver Center
01:06PM 41.6575 -108.3597 263° West 441 507 30,000  Level Denver Center
01:06PM 41.6486 -108.4372 261° West 439 505 30,000  Level Salt Lake Center
01:07PM 41.6308 -108.6175 263° West 439 505 30,000  Level Salt Lake Center
01:08PM 41.6075 -108.7692 258° West 439 505 30,000  Level Salt Lake Center
01:09PM 41.5653 -108.9392 252° West 436 502 30,000  Level Salt Lake Center
01:10PM 41.5556 -109.0881 265° West 451 519 30,000  Level Salt Lake Center
01:11PM 41.6639 -109.1981 323° Northwest 451 519 30,000  Level Salt Lake Center
01:12PM 41.7136 -109.3372 296° West 440 506 30,000  Level Salt Lake Center
01:13PM 41.7717 -109.5031 295° West 440 506 30,000  Level Salt Lake Center
01:14PM 41.8236 -109.6444 296° West 442 509 30,000  Level Salt Lake Center
01:15PM 41.8833 -109.8081 296° West 441 507 30,000  Level Salt Lake Center
01:16PM 41.9350 -109.9506 296° West 443 510 30,000  Level Salt Lake Center
01:17PM 41.9942 -110.1153 296° West 440 506 30,000  Level Salt Lake Center
01:18PM 42.0461 -110.2575 296° West 442 509 30,000  Level Salt Lake Center
01:20PM 42.1053 -110.4239 296° West 442 509 30,000  Level Salt Lake Center
01:21PM 42.1558 -110.5661 296° West 440 506 30,000  Level Salt Lake Center
01:22PM 42.2064 -110.7075 296° West 440 506 30,000  Level Salt Lake Center
01:23PM 42.2647 -110.8731 296° West 438 504 30,000  Level Salt Lake Center
01:24PM 42.3192 -111.0317 295° West 437 503 30,000  Level Salt Lake Center
01:25PM 42.3714 -111.1786 296° West 436 502 30,000  Level Salt Lake Center
01:26PM 42.4222 -111.3264 295° West 436 502 30,000  Level Salt Lake Center
01:27PM 42.4725 -111.4736 295° West 434 499 30,000  Level Salt Lake Center
01:28PM 42.5239 -111.6197 296° West 433 498 30,000  Level Salt Lake Center
01:29PM 42.5836 -111.7978 295° West 434 499 30,000  Level Salt Lake Center
01:30PM 42.6344 -111.9469 295° West 436 502 30,000  Level Salt Lake Center
01:31PM 42.6850 -112.0969 295° West 439 505 30,000  Level Salt Lake Center
01:32PM 42.7431 -112.2661 295° West 441 507 30,000  Level Salt Lake Center
01:33PM 42.7914 -112.4114 294° West 440 506 30,000  Level Salt Lake Center
01:34PM 42.8394 -112.5581 294° West 442 509 30,000  Level Salt Lake Center
01:35PM 42.8878 -112.7308 291° West 436 502 30,000  Level Salt Lake Center
01:36PM 42.9189 -112.8833 286° West 435 501 30,000  Level Salt Lake Center
01:37PM 42.9556 -113.0597 286° West 435 501 30,000  Level Salt Lake Center
01:38PM 42.9864 -113.2100 286° West 430 495 30,000  Level Salt Lake Center
01:39PM 43.0236 -113.3878 286° West 435 501 30,000  Level Salt Lake Center
01:40PM 43.0539 -113.5392 285° West 432 497 30,000 -180 Level Salt Lake Center
01:41PM 43.0889 -113.7164 285° West 432 497 29,700 -600 Descending Salt Lake Center
01:42PM 43.1186 -113.8733 285° West 438 504 28,800 -1,260 Descending Salt Lake Center
01:43PM 43.1481 -114.0247 285° West 408 470 27,100 -1,620 Descending Salt Lake Center
01:44PM 43.1761 -114.1703 285° West 397 457 25,500 -1,680 Descending Salt Lake Center
01:45PM 43.2108 -114.3356 286° West 391 450 23,700 -1,620 Descending Salt Lake Center
01:46PM 43.2369 -114.4744 285° West 391 450 22,200 -1,620 Descending Salt Lake Center
01:47PM 43.2675 -114.6331 285° West 386 444 20,400 -1,620 Descending Salt Lake Center
01:48PM 43.2942 -114.7686 285° West 382 440 18,900 -1,380 Descending Salt Lake Center
01:50PM 43.3194 -114.9075 284° West 365 420 17,600 -1,260 Descending Salt Lake Center
01:51PM 43.3453 -115.0447 285° West 353 406 16,400 -1,260 Descending Salt Lake Center
01:52PM 43.3694 -115.1767 284° West 344 396 15,100 -1,260 Descending Salt Lake Center
01:53PM 43.3936 -115.3078 284° West 336 387 13,900 -1,260 Descending Salt Lake Center
01:54PM 43.4181 -115.4389 284° West 339 390 12,600 -1,140 Descending Salt Lake Center
01:55PM 43.4403 -115.5656 284° West 330 380 11,600 -1,020 Descending Salt Lake Center
01:56PM 43.4733 -115.6794 292° West 303 349 10,500 -780 Descending Salt Lake Center
01:57PM 43.5103 -115.7881 295° West 301 346 10,000 -300 Descending Salt Lake Center
01:58PM 43.5414 -115.8797 295° West 279 321 10,000  Level Salt Lake Center
01:59PM 43.5733 -115.9736 295° West 260 299 10,000 -480 Level Salt Lake Center
02:00PM 43.6033 -116.0578 296° West 236 272 9,100 -960 Descending Salt Lake Center
02:01PM 43.6311 -116.1422 294° West 232 267 8,000 -540 Descending Salt Lake Center
02:02PM 43.6561 -116.2242 293° West 234 269 8,000  Level Salt Lake Center
02:03PM 43.6839 -116.3119 294° West 224 258 8,000 -540 Level Salt Lake Center
02:04PM 43.6936 -116.3886 280° West 220 253 7,000 -1,020 Descending Salt Lake Center